PLS weather

Providenciales Airport
Providenciales Island, Providenciales , Turks and Caicos Islands

Public forecast

Using degrees Celsius for public forecast. Weather courtesy of forecast.io.

METAR (pilot weather report)

Retrieved 2019/07/18 10:00 UTC (34 minutes ago):

MBPV 181000Z 07003KT 9999 -RA SCT012TCU 27/24 Q1017

TAF (pilot weather forecast)

Forecast is more than 6 hours old.

Retrieved 2019/07/18 00:00 UTC (11 hours ago):

TAF MBPV 172300Z 1800/1824 08006KT 9999 SCT020